Ferdinand, Idaho
Current Conditions -  °F | °C
As of 10:15 AM on Sunday 25 Jan 2015 (Local Time) from KGIC Reporting Station
Clear Clear  
Wind Chill:   Ceiling: Unl
Heat Index:   Visibility: 10mi
Dew Point:   Wind: 9mph
Humidity: 81%   Direction: 120°ESE
Pressure: 30.34"   Gusts: NA
Location:  46.15°N, 116.39°W
Report Text: KGIC 251815Z AUTO 12008KT 10SM CLR 08/05 A3034 RMK AO1 T00760046
Loading
Personal Weather Stations






























Interactive Weather Map New forecast layout! Learn more

10-Day Weather Forecast

Advertisements
Track Severe Weather on mobile